Nearby METAR Reports

 

KIND - Indianapolis, Indiana, USA
Distance from station: SW 6mi, 9km
Updated: Jan 23 2021 7:54am
Few Clouds
Few Clouds
 Wind from NNE
Wind: NNE 5 mph , 7 km/h
Temperature: 12°F , -11°C
Wind Chill: 4°F , -16°C
Dew Point: 7°F , -14°C
Humidity: 79%
Barometer: 30.36 inHg , 1028.1 hPa
Clouds: Few Clouds
Visibility: 10 miles , 16 km
Cloud details: Few Clouds 25000 ft
2021/01/23 12:54 KIND 231254Z 03004KT 10SM FEW250 M11/M14 A3036 RMK AO2 SLP296 T11061144
KEYE - Indianapolis, Indiana, USA
Distance from station: NW 5mi, 8km
Updated: Jan 23 2021 7:53am
Clear
Clear
 Wind from calm
Wind: Calm
Temperature: 12°F , -11°C
Dew Point: 7°F , -14°C
Humidity: 79%
Barometer: 30.36 inHg , 1028.1 hPa
Clouds: Clear
Visibility: 10 miles , 16 km
2021/01/23 12:53 KEYE 231253Z AUTO 00000KT 10SM CLR M11/M14 A3036 RMK AO2 SLP295 T11111144 $
 
KTYQ - Indianapolis Exc, Indiana, USA
Distance from station: N 17mi, 28km
Updated: Jan 23 2021 8:15am
Clear
Clear
 Wind from calm
Wind: Calm
Temperature: 10°F , -12°C
Dew Point: 7°F , -14°C
Humidity: 85%
Barometer: 30.37 inHg , 1028.4 hPa
Clouds: Clear
Visibility: 10 miles , 16 km
2021/01/23 13:15 KTYQ 231315Z AUTO 00000KT 10SM CLR M12/M14 A3037 RMK AO2 T11211142
KGEZ - Shelbyville, Indiana, USA
Distance from station: ESE 27mi, 43km
Updated: Jan 23 2021 7:53am
Clear
Clear
 Wind from calm
Wind: Calm
Temperature: 12°F , -11°C
Dew Point: 5°F , -15°C
Humidity: 73%
Barometer: 30.36 inHg , 1028.1 hPa
Clouds: Clear
Visibility: 10 miles , 16 km
2021/01/23 12:53 KGEZ 231253Z AUTO 00000KT 10SM CLR M11/M15 A3036 RMK AO2 SLP295 T11111150
 
KAID - Anderson Municip, Indiana, USA
Distance from station: NE 40mi, 64km
Updated: Jan 23 2021 8:35am
Clear
Clear
 Wind from calm
Wind: Calm
Temperature: 10°F , -12°C
Dew Point: 9°F , -13°C
Humidity: 92%
Barometer: 30.37 inHg , 1028.4 hPa
Clouds: Clear
Visibility: 10 miles , 16 km
2021/01/23 13:35 KAID 231335Z AUTO 00000KT 10SM CLR M12/M13 A3037 RMK AO2 T11171135
KBAK - Columbus/Balkala, Indiana, USA
Distance from station: SSE 40mi, 64km
Updated: Jan 23 2021 7:50am
Clear
Clear
 Wind from calm
Wind: Calm
Temperature: 10°F , -12°C
Dew Point: 7°F , -14°C
Humidity: 85%
Barometer: 30.39 inHg , 1029.1 hPa
Clouds: Clear
Visibility: 10 miles , 16 km
2021/01/23 12:50 KBAK 231250Z 00000KT 10SM CLR M12/M14 A3039
 
KBMG - Bloomington, Indiana, USA
Distance from station: SSW 48mi, 78km
Updated: Jan 23 2021 7:53am
Clear
Clear
 Wind from calm
Wind: Calm
Temperature: 14°F , -10°C
Dew Point: 7°F , -14°C
Humidity: 73%
Barometer: 30.35 inHg , 1027.8 hPa
Clouds: Clear
Visibility: 10 miles , 16 km
2021/01/23 12:53 KBMG 231253Z 00000KT 10SM CLR M10/M14 A3035 RMK AO2 SLP290 T11001139
KOKK - Kokomo, Indiana, USA
Distance from station: N 53mi, 85km
Updated: Jan 23 2021 7:56am
Clear
Clear
 Wind from calm
Wind: Calm
Temperature: 10°F , -12°C
Dew Point: 7°F , -14°C
Humidity: 85%
Barometer: 30.37 inHg , 1028.4 hPa
Clouds: Clear
Visibility: 10 miles , 16 km
2021/01/23 12:56 KOKK 231256Z AUTO 00000KT 10SM CLR M12/M14 A3037 RMK AO2 SLP303 T11171139 FZRANO